createdAt,value
2023-01-25T00:00:30.403Z,102135.59
2023-01-25T00:01:33.213Z,102137.72
2023-01-25T00:02:36.145Z,102149.88
2023-01-25T00:03:38.731Z,102147.50
2023-01-25T00:04:41.282Z,102150.91
2023-01-25T00:05:43.816Z,102154.19
2023-01-25T00:06:47.368Z,102156.78
2023-01-25T00:07:49.845Z,102156.13
2023-01-25T00:08:52.882Z,102150.66
2023-01-25T00:09:55.522Z,102148.84
2023-01-25T00:10:58.696Z,102167.09
2023-01-25T00:12:01.284Z,102152.94
2023-01-25T00:13:03.789Z,102153.63
2023-01-25T00:14:07.986Z,102147.28
2023-01-25T00:15:11.116Z,102154.97
2023-01-25T00:16:13.875Z,102152.50
2023-01-25T00:17:16.543Z,102159.72
2023-01-25T00:18:19.679Z,102159.06
2023-01-25T00:19:22.593Z,102151.22
2023-01-25T00:20:25.768Z,102157.69
2023-01-25T00:21:28.624Z,102156.56
2023-01-25T00:22:31.264Z,102152.69
2023-01-25T00:23:34.968Z,102161.44
2023-01-25T00:24:37.715Z,102159.47
2023-01-25T00:25:40.321Z,102157.22
2023-01-25T00:26:46.769Z,102161.44
2023-01-25T00:27:49.347Z,102155.31
2023-01-25T00:28:54.671Z,102162.09
2023-01-25T00:29:57.268Z,102166.63
2023-01-25T00:31:04.787Z,102168.13
2023-01-25T00:32:07.297Z,102162.09
2023-01-25T00:33:18.951Z,102160.84
2023-01-25T00:34:27.081Z,102172.16
2023-01-25T00:35:32.875Z,102159.56
2023-01-25T00:36:38.814Z,102169.22
2023-01-25T00:37:47.733Z,102161.06
2023-01-25T00:38:53.896Z,102164.78
2023-01-25T00:39:56.798Z,102161.16
2023-01-25T00:40:59.579Z,102164.03
2023-01-25T00:42:02.429Z,102168.88
2023-01-25T00:43:05.155Z,102161.63
2023-01-25T00:44:07.889Z,102164.00
2023-01-25T00:45:12.444Z,102164.47
2023-01-25T00:46:17.384Z,102171.28
2023-01-25T00:47:20.035Z,102178.41
2023-01-25T00:48:25.182Z,102175.09
2023-01-25T00:49:28.434Z,102171.84
2023-01-25T00:50:31.940Z,102174.34
2023-01-25T00:51:34.824Z,102170.72
2023-01-25T00:52:37.396Z,102177.94
2023-01-25T00:53:39.954Z,102176.78
2023-01-25T00:54:42.705Z,102176.47
2023-01-25T00:55:55.415Z,102176.22
2023-01-25T00:56:58.202Z,102178.03
2023-01-25T00:58:00.943Z,102169.88
2023-01-25T00:59:03.875Z,102169.41
2023-01-25T01:00:07.241Z,102164.34
2023-01-25T01:01:12.249Z,102168.41
2023-01-25T01:02:15.015Z,102158.91
2023-01-25T01:03:17.673Z,102161.59
2023-01-25T01:04:25.227Z,102161.38
2023-01-25T01:05:29.349Z,102158.31
2023-01-25T01:06:32.816Z,102162.03
2023-01-25T01:07:36.899Z,102162.63
2023-01-25T01:08:42.529Z,102160.47
2023-01-25T01:09:47.397Z,102164.97
2023-01-25T01:10:49.858Z,102158.28
2023-01-25T01:11:54.783Z,102162.03
2023-01-25T01:12:57.417Z,102156.91
2023-01-25T01:14:00.672Z,102159.88
2023-01-25T01:15:03.175Z,102163.38
2023-01-25T01:16:12.304Z,102159.00
2023-01-25T01:17:15.579Z,102153.78
2023-01-25T01:18:18.098Z,102158.06
2023-01-25T01:19:21.064Z,102152.88
2023-01-25T01:20:24.938Z,102150.38
2023-01-25T01:21:28.329Z,102148.91
2023-01-25T01:22:32.589Z,102147.66
2023-01-25T01:23:36.402Z,102143.47
2023-01-25T01:24:39.072Z,102147.13
2023-01-25T01:25:41.583Z,102145.28
2023-01-25T01:26:47.224Z,102144.94
2023-01-25T01:27:49.877Z,102138.66
2023-01-25T01:28:52.551Z,102144.13
2023-01-25T01:29:55.188Z,102137.69
2023-01-25T01:31:04.920Z,102150.97
2023-01-25T01:32:11.427Z,102144.03
2023-01-25T01:33:13.984Z,102140.75
2023-01-25T01:34:16.674Z,102145.03
2023-01-25T01:35:19.204Z,102132.56
2023-01-25T01:36:23.727Z,102141.63
2023-01-25T01:37:26.328Z,102137.22
2023-01-25T01:38:31.495Z,102132.69
2023-01-25T01:39:34.065Z,102126.69
2023-01-25T01:40:37.001Z,102134.59
2023-01-25T01:41:39.971Z,102138.22
2023-01-25T01:43:17.496Z,102131.06
2023-01-25T01:44:24.387Z,102133.47
2023-01-25T01:46:05.948Z,102133.25
2023-01-25T01:47:25.857Z,102137.97
2023-01-25T01:48:44.558Z,102134.13
2023-01-25T01:50:18.748Z,102121.69
2023-01-25T01:51:25.075Z,102133.31
2023-01-25T01:52:33.350Z,102124.59
2023-01-25T01:53:38.681Z,102129.81
2023-01-25T01:54:47.710Z,102127.34
2023-01-25T01:55:52.865Z,102125.34
2023-01-25T01:57:15.228Z,102129.81
2023-01-25T01:58:18.893Z,102128.59
2023-01-25T01:59:25.644Z,102129.19
2023-01-25T02:00:40.593Z,102125.06
2023-01-25T02:01:44.764Z,102131.19
2023-01-25T02:02:50.381Z,102118.50
2023-01-25T02:03:54.641Z,102117.47
2023-01-25T02:05:01.418Z,102125.63
2023-01-25T02:06:29.305Z,102129.41
2023-01-25T02:07:37.980Z,102128.91
2023-01-25T02:08:43.334Z,102128.03
2023-01-25T02:09:45.849Z,102125.97
2023-01-25T02:10:50.542Z,102126.88
2023-01-25T02:11:54.422Z,102117.69
2023-01-25T02:12:58.714Z,102119.88
2023-01-25T02:14:04.309Z,102116.75
2023-01-25T02:15:07.553Z,102112.16
2023-01-25T02:16:22.183Z,102112.22
2023-01-25T02:17:34.314Z,102107.44
2023-01-25T02:18:39.668Z,102105.88
2023-01-25T02:20:02.197Z,102105.00
2023-01-25T02:21:04.990Z,102100.81
2023-01-25T02:22:13.623Z,102097.94
2023-01-25T02:23:48.652Z,102098.50
2023-01-25T02:25:21.671Z,102101.09
2023-01-25T02:26:24.816Z,102093.44
2023-01-25T02:27:28.343Z,102102.59
2023-01-25T02:29:05.598Z,102097.84
2023-01-25T02:30:09.974Z,102094.59
2023-01-25T02:31:15.845Z,102091.44
2023-01-25T02:32:18.809Z,102101.97
2023-01-25T02:33:29.768Z,102093.34
2023-01-25T02:34:33.449Z,102092.19
2023-01-25T02:35:43.711Z,102103.84
2023-01-25T02:36:46.267Z,102096.16
2023-01-25T02:37:50.628Z,102100.06
2023-01-25T02:38:57.617Z,102094.03
2023-01-25T02:40:00.256Z,102093.56
2023-01-25T02:41:11.970Z,102091.09
2023-01-25T02:42:16.150Z,102091.44
2023-01-25T02:43:19.281Z,102103.00
2023-01-25T02:44:25.403Z,102096.84
2023-01-25T02:45:30.587Z,102095.06
2023-01-25T02:46:36.250Z,102098.38
2023-01-25T02:47:39.482Z,102094.94
2023-01-25T02:48:42.704Z,102099.97
2023-01-25T02:49:45.385Z,102098.25
2023-01-25T02:50:48.195Z,102098.59
2023-01-25T02:51:56.129Z,102101.50
2023-01-25T02:52:59.636Z,102094.34
2023-01-25T02:54:04.575Z,102088.78
2023-01-25T02:55:08.333Z,102099.25
2023-01-25T02:56:11.646Z,102095.47
2023-01-25T02:57:14.436Z,102095.47
2023-01-25T02:58:18.984Z,102098.69
2023-01-25T02:59:22.170Z,102097.16
2023-01-25T03:00:28.601Z,102091.88
2023-01-25T03:01:36.836Z,102092.44
2023-01-25T03:02:39.734Z,102089.19
2023-01-25T03:03:42.622Z,102084.97
2023-01-25T03:04:45.332Z,102082.09
2023-01-25T03:05:48.051Z,102081.00
2023-01-25T03:06:52.030Z,102077.97
2023-01-25T03:07:54.816Z,102071.16
2023-01-25T03:08:59.969Z,102070.50
2023-01-25T03:10:02.830Z,102060.97
2023-01-25T03:11:07.697Z,102058.75
2023-01-25T03:12:12.696Z,102071.56
2023-01-25T03:13:16.240Z,102065.00
2023-01-25T03:14:18.813Z,102068.88
2023-01-25T03:15:21.427Z,102061.97
2023-01-25T03:16:24.119Z,102064.59
2023-01-25T03:17:27.083Z,102064.75
2023-01-25T03:18:37.365Z,102062.28
2023-01-25T03:19:41.136Z,102055.09
2023-01-25T03:20:43.800Z,102066.13
2023-01-25T03:21:47.059Z,102062.16
2023-01-25T03:22:50.100Z,102058.97
2023-01-25T03:23:58.883Z,102050.78
2023-01-25T03:25:04.868Z,102050.78
2023-01-25T03:26:11.925Z,102054.03
2023-01-25T03:27:22.959Z,102059.66
2023-01-25T03:28:35.571Z,102050.13
2023-01-25T03:29:38.803Z,102046.13
2023-01-25T03:30:51.096Z,102042.47
2023-01-25T03:31:53.956Z,102038.50
2023-01-25T03:32:59.838Z,102044.31
2023-01-25T03:34:03.032Z,102044.94
2023-01-25T03:35:10.428Z,102047.38
2023-01-25T03:36:15.488Z,102045.38
2023-01-25T03:37:18.383Z,102050.38
2023-01-25T03:38:24.348Z,102045.00
2023-01-25T03:39:26.913Z,102042.63
2023-01-25T03:40:29.496Z,102038.44
2023-01-25T03:41:32.998Z,102045.81
2023-01-25T03:42:35.624Z,102039.84
2023-01-25T03:43:38.914Z,102040.59
2023-01-25T03:44:41.701Z,102040.63
2023-01-25T03:45:44.628Z,102044.16
2023-01-25T03:46:48.119Z,102042.63
2023-01-25T03:47:50.724Z,102039.84
2023-01-25T03:48:53.412Z,102043.88
2023-01-25T03:49:56.386Z,102050.84
2023-01-25T03:51:00.052Z,102044.28
2023-01-25T03:52:04.263Z,102046.97
2023-01-25T03:53:27.720Z,102042.72
2023-01-25T03:54:31.841Z,102042.50
2023-01-25T03:55:35.017Z,102039.63
2023-01-25T03:56:38.764Z,102046.34
2023-01-25T03:58:02.392Z,102039.56
2023-01-25T03:59:06.696Z,102041.31
2023-01-25T04:00:13.126Z,102038.03
2023-01-25T04:01:23.395Z,102042.44
2023-01-25T04:02:26.525Z,102040.19
2023-01-25T04:03:31.266Z,102039.03
2023-01-25T04:04:34.582Z,102036.28
2023-01-25T04:05:37.189Z,102029.56
2023-01-25T04:06:40.037Z,102029.84
2023-01-25T04:07:42.923Z,102037.75
2023-01-25T04:08:46.403Z,102038.66
2023-01-25T04:09:50.515Z,102046.66
2023-01-25T04:11:01.171Z,102041.16
2023-01-25T04:12:07.922Z,102042.81
2023-01-25T04:13:10.772Z,102037.41
2023-01-25T04:14:13.569Z,102026.16
2023-01-25T04:15:21.987Z,102026.31
2023-01-25T04:16:25.663Z,102025.47
2023-01-25T04:17:48.728Z,102026.72
2023-01-25T04:19:04.081Z,102015.50
2023-01-25T04:20:10.384Z,102016.88
2023-01-25T04:21:16.425Z,102020.38
2023-01-25T04:22:19.171Z,102013.13
2023-01-25T04:23:24.474Z,102008.47
2023-01-25T04:24:28.019Z,102002.13
2023-01-25T04:25:38.001Z,102007.47
2023-01-25T04:26:46.132Z,102010.06
2023-01-25T04:27:52.951Z,102005.66
2023-01-25T04:28:56.239Z,102016.25
2023-01-25T04:29:59.662Z,102014.50
2023-01-25T04:31:03.892Z,102012.91
2023-01-25T04:32:11.577Z,102009.94
2023-01-25T04:33:14.715Z,102015.34
2023-01-25T04:34:18.400Z,102009.19
2023-01-25T04:35:22.008Z,102012.06
2023-01-25T04:36:24.882Z,102005.41
2023-01-25T04:37:27.616Z,102007.66
2023-01-25T04:38:35.126Z,102005.66
2023-01-25T04:39:39.898Z,102004.22
2023-01-25T04:40:44.254Z,102006.22
2023-01-25T04:41:47.702Z,102005.00
2023-01-25T04:42:50.457Z,102006.81
2023-01-25T04:43:53.422Z,102005.63
2023-01-25T04:44:56.217Z,102009.78
2023-01-25T04:46:03.033Z,102019.97
2023-01-25T04:47:07.668Z,102022.56
2023-01-25T04:48:12.283Z,102015.38
2023-01-25T04:49:21.279Z,102014.97
2023-01-25T04:50:24.412Z,102023.34
2023-01-25T04:51:27.066Z,102017.97
2023-01-25T04:52:29.766Z,102017.97
2023-01-25T04:53:32.582Z,102020.22
2023-01-25T04:54:36.907Z,102023.22
2023-01-25T04:55:40.616Z,102024.47
2023-01-25T04:56:44.331Z,102027.22
2023-01-25T04:57:50.635Z,102022.47
2023-01-25T04:58:54.199Z,102026.84
2023-01-25T04:59:57.668Z,102028.63
2023-01-25T05:01:04.019Z,102030.63
2023-01-25T05:02:07.788Z,102024.81
2023-01-25T05:03:10.711Z,102024.06
2023-01-25T05:04:14.262Z,102024.94
2023-01-25T05:05:20.286Z,102024.47
2023-01-25T05:06:23.763Z,102029.84
2023-01-25T05:07:26.568Z,102020.28
2023-01-25T05:08:29.854Z,102023.72
2023-01-25T05:09:36.405Z,102018.38
2023-01-25T05:10:39.234Z,102032.28
2023-01-25T05:12:03.298Z,102020.97
2023-01-25T05:13:13.355Z,102027.69
2023-01-25T05:14:19.645Z,102031.66
2023-01-25T05:15:25.344Z,102030.09
2023-01-25T05:16:28.943Z,102027.09
2023-01-25T05:17:31.715Z,102032.28
2023-01-25T05:18:47.939Z,102023.31
2023-01-25T05:19:55.037Z,102018.59
2023-01-25T05:20:59.080Z,102027.97
2023-01-25T05:22:07.844Z,102021.03
2023-01-25T05:23:19.224Z,102029.34
2023-01-25T05:24:21.921Z,102026.19
2023-01-25T05:25:43.142Z,102029.56
2023-01-25T05:27:05.684Z,102032.16
2023-01-25T05:28:36.689Z,102038.13
2023-01-25T05:29:57.066Z,102032.16
2023-01-25T05:31:14.954Z,102028.19
2023-01-25T05:32:20.663Z,102033.97
2023-01-25T05:33:23.627Z,102036.13
2023-01-25T05:34:26.819Z,102024.41
2023-01-25T05:35:29.755Z,102027.59
2023-01-25T05:36:33.147Z,102020.22
2023-01-25T05:37:36.285Z,102027.41
2023-01-25T05:38:53.291Z,102033.78
2023-01-25T05:39:56.479Z,102038.16
2023-01-25T05:41:00.611Z,102031.75
2023-01-25T05:42:03.967Z,102030.59
2023-01-25T05:43:06.653Z,102031.19
2023-01-25T05:44:09.483Z,102031.59
2023-01-25T05:45:16.981Z,102032.78
2023-01-25T05:46:21.880Z,102039.94
2023-01-25T05:47:24.680Z,102042.75
2023-01-25T05:48:29.502Z,102040.75
2023-01-25T05:49:34.213Z,102042.16
2023-01-25T05:50:39.245Z,102042.16
2023-01-25T05:51:46.791Z,102040.16
2023-01-25T05:52:49.984Z,102043.75
2023-01-25T05:53:56.320Z,102032.25
2023-01-25T05:54:59.582Z,102036.19
2023-01-25T05:56:09.189Z,102039.38
2023-01-25T05:57:14.281Z,102041.75
2023-01-25T05:58:17.188Z,102037.34
2023-01-25T05:59:20.318Z,102035.00
2023-01-25T06:00:23.831Z,102040.94
2023-01-25T06:01:29.507Z,102050.09
2023-01-25T06:02:37.303Z,102041.38
2023-01-25T06:03:40.112Z,102043.38
2023-01-25T06:04:43.409Z,102052.34
2023-01-25T06:05:57.392Z,102050.16
2023-01-25T06:07:00.193Z,102046.16
2023-01-25T06:08:03.457Z,102054.13
2023-01-25T06:09:15.978Z,102049.78
2023-01-25T06:10:22.630Z,102058.16
2023-01-25T06:11:26.543Z,102063.72
2023-01-25T06:12:30.648Z,102059.13
2023-01-25T06:13:34.743Z,102057.53
2023-01-25T06:14:39.674Z,102061.91
2023-01-25T06:15:42.570Z,102059.78
2023-01-25T06:17:08.799Z,102060.94
2023-01-25T06:18:35.745Z,102059.19
2023-01-25T06:19:47.687Z,102058.19
2023-01-25T06:21:11.857Z,102058.56
2023-01-25T06:22:14.626Z,102054.19
2023-01-25T06:23:17.722Z,102054.38
2023-01-25T06:24:20.564Z,102049.78
2023-01-25T06:25:23.567Z,102053.16
2023-01-25T06:26:26.935Z,102057.72
2023-01-25T06:27:32.373Z,102061.69
2023-01-25T06:28:36.833Z,102059.91
2023-01-25T06:29:40.593Z,102059.38
2023-01-25T06:30:43.359Z,102058.38
2023-01-25T06:31:46.198Z,102057.53
2023-01-25T06:32:50.722Z,102055.31
2023-01-25T06:33:53.363Z,102060.09
2023-01-25T06:34:57.970Z,102051.34
2023-01-25T06:36:05.843Z,102055.31
2023-01-25T06:37:08.537Z,102058.31
2023-01-25T06:38:11.050Z,102058.72
2023-01-25T06:39:14.951Z,102060.91
2023-01-25T06:40:17.911Z,102061.31
2023-01-25T06:41:21.102Z,102056.50
2023-01-25T06:42:29.782Z,102050.13
2023-01-25T06:43:33.555Z,102062.06
2023-01-25T06:44:36.228Z,102063.03
2023-01-25T06:45:38.938Z,102057.25
2023-01-25T06:46:45.235Z,102060.22
2023-01-25T06:47:49.387Z,102060.41
2023-01-25T06:48:55.023Z,102056.03
2023-01-25T06:50:01.788Z,102057.59
2023-01-25T06:51:07.735Z,102055.22
2023-01-25T06:52:16.380Z,102057.78
2023-01-25T06:53:22.475Z,102072.72
2023-01-25T06:54:24.996Z,102102.88
2023-01-25T06:55:30.973Z,102117.84
2023-01-25T06:56:34.299Z,102126.53
2023-01-25T06:57:42.010Z,102140.97
2023-01-25T06:58:55.397Z,102145.00
2023-01-25T07:00:08.009Z,102147.94
2023-01-25T07:01:34.947Z,102151.78
2023-01-25T07:02:53.014Z,102147.34
2023-01-25T07:03:59.994Z,102147.59
2023-01-25T07:05:07.857Z,102151.09
2023-01-25T07:06:11.930Z,102142.13
2023-01-25T07:07:39.768Z,102144.38
2023-01-25T07:08:48.281Z,102136.88
2023-01-25T07:10:00.455Z,102133.38
2023-01-25T07:11:15.658Z,102143.56
2023-01-25T07:12:20.734Z,102148.63
2023-01-25T07:13:25.355Z,102159.69
2023-01-25T07:14:28.463Z,102173.84
2023-01-25T07:15:31.148Z,102183.00
2023-01-25T07:16:37.351Z,102191.31
2023-01-25T07:17:42.701Z,102192.03
2023-01-25T07:18:54.135Z,102188.50
2023-01-25T07:19:56.904Z,102194.50
2023-01-25T07:21:05.160Z,102187.13
2023-01-25T07:22:11.434Z,102183.44
2023-01-25T07:23:34.857Z,102188.25
2023-01-25T07:24:38.015Z,102184.66
2023-01-25T07:25:52.502Z,102186.31
2023-01-25T07:27:07.996Z,102191.28
2023-01-25T07:28:24.980Z,102188.06
2023-01-25T07:29:33.123Z,102190.56
2023-01-25T07:30:44.593Z,102193.69
2023-01-25T07:31:57.398Z,102190.44
2023-01-25T07:33:06.305Z,102186.34
2023-01-25T07:34:21.582Z,102188.91
2023-01-25T07:35:26.897Z,102193.78
2023-01-25T07:36:33.073Z,102190.31
2023-01-25T07:37:43.877Z,102203.56
2023-01-25T07:38:46.609Z,102192.94
2023-01-25T07:39:52.321Z,102192.63
2023-01-25T07:41:28.851Z,102193.22
2023-01-25T07:42:33.680Z,102196.97
2023-01-25T07:43:47.818Z,102187.97
2023-01-25T07:44:58.484Z,102192.44
2023-01-25T07:46:06.892Z,102194.13
2023-01-25T07:47:09.748Z,102194.94
2023-01-25T07:48:13.374Z,102193.16
2023-01-25T07:49:16.694Z,102192.34
2023-01-25T07:50:19.324Z,102199.47
2023-01-25T07:55:26.878Z,102186.66
2023-01-25T07:56:58.130Z,102184.09
2023-01-25T07:58:00.855Z,102187.00
2023-01-25T07:59:04.594Z,102192.13
2023-01-25T08:00:10.143Z,102194.81
2023-01-25T08:01:19.655Z,102187.00
2023-01-25T08:02:22.406Z,102190.66
2023-01-25T08:03:24.787Z,102185.53
2023-01-25T08:04:27.235Z,102185.34
2023-01-25T08:05:29.876Z,102194.41
2023-01-25T08:06:36.159Z,102184.22
2023-01-25T08:07:38.808Z,102185.72
2023-01-25T08:08:46.778Z,102187.59
2023-01-25T08:09:49.263Z,102183.44
2023-01-25T08:10:51.849Z,102186.03
2023-01-25T08:11:54.429Z,102188.53
2023-01-25T08:12:56.777Z,102187.00
2023-01-25T08:14:02.072Z,102187.75
2023-01-25T08:15:05.237Z,102180.81
2023-01-25T08:16:07.886Z,102187.66
2023-01-25T08:17:10.744Z,102176.84
2023-01-25T08:18:13.456Z,102183.81
2023-01-25T08:19:16.258Z,102175.50
2023-01-25T08:20:19.420Z,102182.13
2023-01-25T08:21:29.331Z,102180.75
2023-01-25T08:22:31.667Z,102174.75
2023-01-25T08:23:34.080Z,102180.13
2023-01-25T08:24:39.074Z,102177.00
2023-01-25T08:25:41.409Z,102179.44
2023-01-25T08:26:44.080Z,102178.84
2023-01-25T08:27:46.456Z,102183.75
2023-01-25T08:28:49.421Z,102181.13
2023-01-25T08:29:53.947Z,102185.34
2023-01-25T08:31:08.660Z,102181.91
2023-01-25T08:32:11.252Z,102178.72
2023-01-25T08:33:13.947Z,102172.13
2023-01-25T08:34:16.448Z,102178.25
2023-01-25T08:35:18.922Z,102175.84
2023-01-25T08:36:24.416Z,102175.72
2023-01-25T08:37:29.807Z,102171.50
2023-01-25T08:38:32.972Z,102180.66
2023-01-25T08:39:35.758Z,102178.84
2023-01-25T08:40:41.289Z,102177.56
2023-01-25T08:41:46.669Z,102172.69
2023-01-25T08:42:49.306Z,102166.16
2023-01-25T08:44:00.949Z,102169.59
2023-01-25T08:45:04.492Z,102166.13
2023-01-25T08:46:10.013Z,102169.56
2023-01-25T08:47:13.487Z,102168.47
2023-01-25T08:48:23.449Z,102173.75
2023-01-25T08:49:28.125Z,102168.25
2023-01-25T08:50:30.440Z,102167.53
2023-01-25T08:51:50.664Z,102164.91
2023-01-25T08:52:53.183Z,102174.38
2023-01-25T08:53:55.714Z,102156.47
2023-01-25T08:54:58.457Z,102158.84
2023-01-25T08:56:09.239Z,102155.44
2023-01-25T08:57:12.599Z,102160.94
2023-01-25T08:58:22.624Z,102158.56
2023-01-25T08:59:25.196Z,102152.53
2023-01-25T09:00:31.601Z,102158.03
2023-01-25T09:01:36.813Z,102157.25
2023-01-25T09:02:39.386Z,102164.91
2023-01-25T09:03:44.519Z,102162.56
2023-01-25T09:04:47.412Z,102163.06
2023-01-25T09:05:52.670Z,102160.66
2023-01-25T09:06:56.657Z,102154.66
2023-01-25T09:08:05.911Z,102167.47
2023-01-25T09:09:13.200Z,102166.28
2023-01-25T09:10:19.500Z,102167.56
2023-01-25T09:11:23.305Z,102169.59
2023-01-25T09:12:28.707Z,102164.75
2023-01-25T09:13:31.278Z,102161.56
2023-01-25T09:14:40.484Z,102161.81
2023-01-25T09:15:44.672Z,102163.94
2023-01-25T09:16:49.329Z,102172.81
2023-01-25T09:18:00.673Z,102163.91
2023-01-25T09:19:06.215Z,102160.69
2023-01-25T09:20:09.944Z,102167.09
2023-01-25T09:21:17.372Z,102168.78
2023-01-25T09:22:19.763Z,102171.47
2023-01-25T09:23:24.233Z,102175.88
2023-01-25T09:24:26.716Z,102164.91
2023-01-25T09:25:29.104Z,102169.91
2023-01-25T09:26:32.516Z,102169.97
2023-01-25T09:27:35.253Z,102169.41
2023-01-25T09:28:38.464Z,102167.47
2023-01-25T09:29:49.570Z,102162.09
2023-01-25T09:31:20.346Z,102165.50
2023-01-25T09:32:43.430Z,102159.22
2023-01-25T09:33:46.955Z,102164.91
2023-01-25T09:34:49.581Z,102160.00
2023-01-25T09:35:52.029Z,102165.47
2023-01-25T09:36:54.396Z,102162.44
2023-01-25T09:37:57.130Z,102156.44
2023-01-25T09:39:00.369Z,102157.00
2023-01-25T09:40:04.206Z,102158.78
2023-01-25T09:41:25.399Z,102158.78
2023-01-25T09:42:59.126Z,102149.34
2023-01-25T09:44:21.841Z,102147.47
2023-01-25T09:45:30.455Z,102151.84
2023-01-25T09:46:44.357Z,102146.38
2023-01-25T09:48:03.952Z,102147.66
2023-01-25T09:49:20.230Z,102142.75
2023-01-25T09:50:27.578Z,102148.75
2023-01-25T09:52:00.277Z,102139.50
2023-01-25T09:53:37.281Z,102129.22
2023-01-25T09:54:47.144Z,102122.56
2023-01-25T09:55:54.258Z,102130.66
2023-01-25T09:56:58.752Z,102129.97
2023-01-25T09:58:04.286Z,102121.63
2023-01-25T09:59:16.413Z,102119.91
2023-01-25T10:00:23.794Z,102129.09
2023-01-25T10:01:38.971Z,102132.56
2023-01-25T10:02:53.396Z,102136.63
2023-01-25T10:04:02.891Z,102133.69
2023-01-25T10:05:18.663Z,102133.38
2023-01-25T10:06:25.072Z,102117.69
2023-01-25T10:07:57.872Z,102118.81
2023-01-25T10:09:45.400Z,102111.22
2023-01-25T10:10:52.570Z,102111.69
2023-01-25T10:12:13.175Z,102106.09
2023-01-25T10:13:26.801Z,102108.50
2023-01-25T10:14:33.477Z,102107.44
2023-01-25T10:15:58.129Z,102103.00
2023-01-25T10:17:17.119Z,102109.91
2023-01-25T10:18:57.388Z,102100.78
2023-01-25T10:20:05.552Z,102099.22
2023-01-25T10:21:31.274Z,102098.53
2023-01-25T10:22:40.463Z,102092.06
2023-01-25T10:24:11.023Z,102091.22
2023-01-25T10:25:55.989Z,102085.13
2023-01-25T10:27:09.487Z,102085.81
2023-01-25T10:28:32.353Z,102078.03
2023-01-25T10:29:37.578Z,102081.50
2023-01-25T10:30:57.621Z,102081.81
2023-01-25T10:32:31.675Z,102083.56
2023-01-25T10:33:47.535Z,102083.75
2023-01-25T10:34:57.102Z,102078.53
2023-01-25T10:36:05.438Z,102086.38
2023-01-25T10:37:14.907Z,102085.53
2023-01-25T10:38:33.877Z,102079.44
2023-01-25T10:39:52.982Z,102075.31
2023-01-25T10:41:27.116Z,102066.53
2023-01-25T10:42:49.873Z,102074.91
2023-01-25T10:44:12.319Z,102068.72
2023-01-25T10:45:40.352Z,102065.47
2023-01-25T10:46:50.391Z,102064.66
2023-01-25T10:48:17.650Z,102059.19
2023-01-25T10:49:48.613Z,102048.28
2023-01-25T10:50:56.577Z,102054.09
2023-01-25T10:52:20.599Z,102044.56
2023-01-25T10:53:28.011Z,102040.44
2023-01-25T10:54:33.767Z,102042.53
2023-01-25T10:55:53.375Z,102036.22
2023-01-25T10:57:00.311Z,102043.53
2023-01-25T10:58:02.745Z,102038.69
2023-01-25T10:59:08.161Z,102040.13
2023-01-25T11:00:20.534Z,102038.28
2023-01-25T11:01:31.594Z,102044.41
2023-01-25T11:02:46.035Z,102038.94
2023-01-25T11:03:48.602Z,102039.28
2023-01-25T11:04:51.030Z,102038.47
2023-01-25T11:05:57.422Z,102037.19
2023-01-25T11:07:00.420Z,102039.16
2023-01-25T11:08:25.870Z,102040.09
2023-01-25T11:09:43.207Z,102032.50
2023-01-25T11:10:49.064Z,102039.63
2023-01-25T11:12:02.401Z,102034.88
2023-01-25T11:13:17.494Z,102036.09
2023-01-25T11:14:19.958Z,102029.63
2023-01-25T11:15:28.199Z,102026.44
2023-01-25T11:16:39.215Z,102019.34
2023-01-25T11:18:34.007Z,102022.84
2023-01-25T11:19:40.973Z,102023.59
2023-01-25T11:20:43.806Z,102016.97
2023-01-25T11:21:53.671Z,102020.41
2023-01-25T11:22:57.889Z,102017.03
2023-01-25T11:24:13.508Z,102010.72
2023-01-25T11:25:26.767Z,102020.63
2023-01-25T11:26:30.142Z,102015.53
2023-01-25T11:27:32.976Z,102008.41
2023-01-25T11:28:38.613Z,102011.44
2023-01-25T11:29:41.082Z,102005.91
2023-01-25T11:30:43.999Z,102002.88
2023-01-25T11:31:57.912Z,101999.25
2023-01-25T11:33:00.439Z,102009.06
2023-01-25T11:34:03.294Z,101997.34
2023-01-25T11:35:17.839Z,101996.84
2023-01-25T11:36:27.261Z,101993.31
2023-01-25T11:37:44.678Z,101994.88
2023-01-25T11:39:19.405Z,101980.13
2023-01-25T11:40:34.148Z,101987.50
2023-01-25T11:41:51.656Z,101982.22
2023-01-25T11:43:00.455Z,101970.97
2023-01-25T11:44:41.068Z,101973.44
2023-01-25T11:46:01.814Z,101970.56
2023-01-25T11:47:39.044Z,101969.25
2023-01-25T11:48:50.175Z,101969.44
2023-01-25T11:50:14.118Z,101965.31
2023-01-25T11:51:35.219Z,101958.75
2023-01-25T11:53:30.013Z,101966.16
2023-01-25T11:54:49.059Z,101961.66
2023-01-25T11:56:16.141Z,101963.22
2023-01-25T11:57:35.399Z,101951.25
2023-01-25T11:58:47.783Z,101946.03
2023-01-25T12:00:10.358Z,101949.13
2023-01-25T12:01:40.789Z,101947.97
2023-01-25T12:03:04.544Z,101945.00
2023-01-25T12:04:29.468Z,101939.16
2023-01-25T12:05:44.724Z,101943.09
2023-01-25T12:07:14.596Z,101935.03
2023-01-25T12:08:56.671Z,101933.94
2023-01-25T12:10:25.894Z,101931.06
2023-01-25T12:11:37.734Z,101926.31
2023-01-25T12:12:56.848Z,101922.91
2023-01-25T12:14:26.347Z,101928.72
2023-01-25T12:15:50.361Z,101923.22
2023-01-25T12:17:21.788Z,101915.84
2023-01-25T12:18:33.973Z,101913.28
2023-01-25T12:19:57.833Z,101920.34
2023-01-25T12:21:31.329Z,101922.97
2023-01-25T12:23:03.434Z,101925.22
2023-01-25T12:24:16.003Z,101918.97
2023-01-25T12:25:40.355Z,101922.16
2023-01-25T12:27:07.959Z,101923.81
2023-01-25T12:28:21.386Z,101925.41
2023-01-25T12:29:35.478Z,101925.97
2023-01-25T12:30:41.068Z,101918.44
2023-01-25T12:32:08.890Z,101915.56
2023-01-25T12:33:23.427Z,101914.47
2023-01-25T12:34:30.778Z,101915.75
2023-01-25T12:35:37.484Z,101918.03
2023-01-25T12:36:48.668Z,101914.16
2023-01-25T12:37:59.351Z,101916.78
2023-01-25T12:39:06.523Z,101907.56
2023-01-25T12:40:28.773Z,101913.84
2023-01-25T12:41:41.665Z,101903.47
2023-01-25T12:42:52.898Z,101911.69
2023-01-25T12:44:26.336Z,101908.09
2023-01-25T12:45:32.446Z,101908.63
2023-01-25T12:46:48.052Z,101900.56
2023-01-25T12:48:04.556Z,101909.16
2023-01-25T12:49:22.998Z,101911.06
2023-01-25T12:50:41.091Z,101907.09
2023-01-25T12:51:44.915Z,101908.09
2023-01-25T12:52:54.172Z,101900.53
2023-01-25T12:53:58.501Z,101907.91
2023-01-25T12:55:06.202Z,101907.22
2023-01-25T12:56:11.595Z,101901.81
2023-01-25T12:57:22.730Z,101894.75
2023-01-25T12:58:44.090Z,101898.56
2023-01-25T12:59:55.828Z,101898.91
2023-01-25T13:01:35.373Z,101889.22
2023-01-25T13:03:13.250Z,101894.25
2023-01-25T13:04:26.732Z,101891.88
2023-01-25T13:05:38.665Z,101889.84
2023-01-25T13:06:57.672Z,101889.03
2023-01-25T13:08:36.265Z,101889.09
2023-01-25T13:09:57.720Z,101896.88